sensor_id;sensor_type;location;lat;lon;timestamp;P1;durP1;ratioP1;P2;durP2;ratioP2
63587;SDS011;49966;46.896;18.004;2023-07-13T00:01:22;5.03;;;2.35;;
63587;SDS011;49966;46.896;18.004;2023-07-13T00:03:51;2.92;;;2.10;;
63587;SDS011;49966;46.896;18.004;2023-07-13T00:06:19;11.35;;;2.47;;
63587;SDS011;49966;46.896;18.004;2023-07-13T00:08:48;4.38;;;2.30;;
63587;SDS011;49966;46.896;18.004;2023-07-13T00:11:16;7.82;;;2.60;;
63587;SDS011;49966;46.896;18.004;2023-07-13T00:13:46;5.82;;;2.50;;
63587;SDS011;49966;46.896;18.004;2023-07-13T00:16:15;5.00;;;2.13;;
63587;SDS011;49966;46.896;18.004;2023-07-13T00:18:43;4.75;;;2.20;;
63587;SDS011;49966;46.896;18.004;2023-07-13T00:21:11;5.22;;;2.30;;
63587;SDS011;49966;46.896;18.004;2023-07-13T00:23:40;7.85;;;2.55;;
63587;SDS011;49966;46.896;18.004;2023-07-13T00:26:10;2.78;;;2.20;;
63587;SDS011;49966;46.896;18.004;2023-07-13T00:28:40;6.00;;;2.03;;
63587;SDS011;49966;46.896;18.004;2023-07-13T00:31:10;5.05;;;2.20;;
63587;SDS011;49966;46.896;18.004;2023-07-13T00:33:41;2.83;;;2.33;;
63587;SDS011;49966;46.896;18.004;2023-07-13T00:36:09;3.97;;;2.10;;
63587;SDS011;49966;46.896;18.004;2023-07-13T00:38:38;4.63;;;2.30;;
63587;SDS011;49966;46.896;18.004;2023-07-13T00:41:06;8.55;;;2.30;;
63587;SDS011;49966;46.896;18.004;2023-07-13T00:43:35;14.40;;;2.30;;
63587;SDS011;49966;46.896;18.004;2023-07-13T00:46:18;4.03;;;1.95;;
63587;SDS011;49966;46.896;18.004;2023-07-13T00:48:49;6.70;;;2.17;;
63587;SDS011;49966;46.896;18.004;2023-07-13T00:51:20;3.80;;;1.98;;
63587;SDS011;49966;46.896;18.004;2023-07-13T00:53:52;7.13;;;2.38;;
63587;SDS011;49966;46.896;18.004;2023-07-13T00:56:22;4.07;;;2.20;;
63587;SDS011;49966;46.896;18.004;2023-07-13T00:58:51;5.50;;;2.20;;
63587;SDS011;49966;46.896;18.004;2023-07-13T01:01:21;4.43;;;2.30;;
63587;SDS011;49966;46.896;18.004;2023-07-13T01:03:50;3.90;;;2.10;;
63587;SDS011;49966;46.896;18.004;2023-07-13T01:06:19;4.28;;;2.47;;
63587;SDS011;49966;46.896;18.004;2023-07-13T01:08:47;5.78;;;2.30;;
63587;SDS011;49966;46.896;18.004;2023-07-13T01:11:18;4.85;;;2.40;;
63587;SDS011;49966;46.896;18.004;2023-07-13T01:13:48;3.28;;;2.17;;
63587;SDS011;49966;46.896;18.004;2023-07-13T01:16:19;7.30;;;2.47;;
63587;SDS011;49966;46.896;18.004;2023-07-13T01:18:52;7.67;;;2.50;;
63587;SDS011;49966;46.896;18.004;2023-07-13T01:21:22;5.55;;;2.90;;
63587;SDS011;49966;46.896;18.004;2023-07-13T01:23:50;6.75;;;2.38;;
63587;SDS011;49966;46.896;18.004;2023-07-13T01:26:19;8.98;;;2.75;;
63587;SDS011;49966;46.896;18.004;2023-07-13T01:28:48;6.13;;;2.47;;
63587;SDS011;49966;46.896;18.004;2023-07-13T01:31:16;6.18;;;2.50;;
63587;SDS011;49966;46.896;18.004;2023-07-13T01:33:44;6.40;;;2.70;;
63587;SDS011;49966;46.896;18.004;2023-07-13T01:36:13;8.90;;;3.00;;
63587;SDS011;49966;46.896;18.004;2023-07-13T01:38:42;9.80;;;2.47;;
63587;SDS011;49966;46.896;18.004;2023-07-13T01:41:11;7.63;;;2.60;;
63587;SDS011;49966;46.896;18.004;2023-07-13T01:43:39;7.88;;;2.67;;
63587;SDS011;49966;46.896;18.004;2023-07-13T01:46:07;9.23;;;2.53;;
63587;SDS011;49966;46.896;18.004;2023-07-13T01:48:49;8.18;;;3.15;;
63587;SDS011;49966;46.896;18.004;2023-07-13T01:51:19;8.30;;;2.90;;
63587;SDS011;49966;46.896;18.004;2023-07-13T01:53:49;5.30;;;2.60;;
63587;SDS011;49966;46.896;18.004;2023-07-13T01:56:18;7.10;;;2.72;;
63587;SDS011;49966;46.896;18.004;2023-07-13T01:58:47;11.18;;;2.75;;
63587;SDS011;49966;46.896;18.004;2023-07-13T02:01:15;7.53;;;4.10;;
63587;SDS011;49966;46.896;18.004;2023-07-13T02:03:43;5.10;;;2.78;;
63587;SDS011;49966;46.896;18.004;2023-07-13T02:06:13;7.95;;;2.90;;
63587;SDS011;49966;46.896;18.004;2023-07-13T02:08:41;7.68;;;2.85;;
63587;SDS011;49966;46.896;18.004;2023-07-13T02:11:11;7.20;;;2.60;;
63587;SDS011;49966;46.896;18.004;2023-07-13T02:13:39;4.35;;;2.40;;
63587;SDS011;49966;46.896;18.004;2023-07-13T02:16:08;7.35;;;2.90;;
63587;SDS011;49966;46.896;18.004;2023-07-13T02:18:37;9.27;;;2.90;;
63587;SDS011;49966;46.896;18.004;2023-07-13T02:21:05;6.60;;;2.70;;
63587;SDS011;49966;46.896;18.004;2023-07-13T02:23:34;7.63;;;2.72;;
63587;SDS011;49966;46.896;18.004;2023-07-13T02:26:03;5.72;;;2.83;;
63587;SDS011;49966;46.896;18.004;2023-07-13T02:28:33;7.07;;;2.63;;
63587;SDS011;49966;46.896;18.004;2023-07-13T02:31:05;5.47;;;2.50;;
63587;SDS011;49966;46.896;18.004;2023-07-13T02:33:34;6.13;;;2.75;;
63587;SDS011;49966;46.896;18.004;2023-07-13T02:36:02;5.82;;;2.63;;
63587;SDS011;49966;46.896;18.004;2023-07-13T02:38:32;8.23;;;3.00;;
63587;SDS011;49966;46.896;18.004;2023-07-13T02:41:01;9.52;;;2.60;;
63587;SDS011;49966;46.896;18.004;2023-07-13T02:43:30;4.72;;;2.60;;
63587;SDS011;49966;46.896;18.004;2023-07-13T02:46:00;7.32;;;2.95;;
63587;SDS011;49966;46.896;18.004;2023-07-13T02:48:34;11.10;;;2.83;;
63587;SDS011;49966;46.896;18.004;2023-07-13T02:51:03;8.55;;;2.75;;
63587;SDS011;49966;46.896;18.004;2023-07-13T02:53:31;11.35;;;3.00;;
63587;SDS011;49966;46.896;18.004;2023-07-13T02:56:00;6.20;;;2.88;;
63587;SDS011;49966;46.896;18.004;2023-07-13T02:58:28;11.00;;;2.97;;
63587;SDS011;49966;46.896;18.004;2023-07-13T03:00:56;6.70;;;3.28;;
63587;SDS011;49966;46.896;18.004;2023-07-13T03:03:26;9.32;;;3.45;;
63587;SDS011;49966;46.896;18.004;2023-07-13T03:05:57;9.15;;;3.30;;
63587;SDS011;49966;46.896;18.004;2023-07-13T03:08:28;6.60;;;2.80;;
63587;SDS011;49966;46.896;18.004;2023-07-13T03:11:00;7.50;;;3.20;;
63587;SDS011;49966;46.896;18.004;2023-07-13T03:13:28;6.50;;;2.88;;
63587;SDS011;49966;46.896;18.004;2023-07-13T03:15:56;12.05;;;2.97;;
63587;SDS011;49966;46.896;18.004;2023-07-13T03:18:26;7.43;;;2.97;;
63587;SDS011;49966;46.896;18.004;2023-07-13T03:20:55;7.40;;;3.35;;
63587;SDS011;49966;46.896;18.004;2023-07-13T03:23:24;8.75;;;2.70;;
63587;SDS011;49966;46.896;18.004;2023-07-13T03:26:00;7.40;;;3.00;;
63587;SDS011;49966;46.896;18.004;2023-07-13T03:28:31;8.35;;;3.10;;
63587;SDS011;49966;46.896;18.004;2023-07-13T03:31:00;5.93;;;3.05;;
63587;SDS011;49966;46.896;18.004;2023-07-13T03:33:30;7.18;;;2.90;;
63587;SDS011;49966;46.896;18.004;2023-07-13T03:35:59;5.30;;;2.80;;
63587;SDS011;49966;46.896;18.004;2023-07-13T03:38:27;6.57;;;3.33;;
63587;SDS011;49966;46.896;18.004;2023-07-13T03:40:55;6.97;;;3.00;;
63587;SDS011;49966;46.896;18.004;2023-07-13T03:43:24;9.85;;;2.88;;
63587;SDS011;49966;46.896;18.004;2023-07-13T03:45:52;7.60;;;3.10;;
63587;SDS011;49966;46.896;18.004;2023-07-13T03:48:20;6.90;;;2.85;;
63587;SDS011;49966;46.896;18.004;2023-07-13T03:50:50;7.35;;;2.95;;
63587;SDS011;49966;46.896;18.004;2023-07-13T03:53:18;8.45;;;3.33;;
63587;SDS011;49966;46.896;18.004;2023-07-13T03:55:46;6.97;;;2.90;;
63587;SDS011;49966;46.896;18.004;2023-07-13T04:01:14;18.27;;;4.10;;
63587;SDS011;49966;46.896;18.004;2023-07-13T04:03:44;13.48;;;3.17;;
63587;SDS011;49966;46.896;18.004;2023-07-13T04:06:17;15.48;;;3.67;;
63587;SDS011;49966;46.896;18.004;2023-07-13T04:08:48;14.13;;;3.65;;
63587;SDS011;49966;46.896;18.004;2023-07-13T04:11:18;17.25;;;3.88;;
63587;SDS011;49966;46.896;18.004;2023-07-13T04:13:47;17.05;;;3.50;;
63587;SDS011;49966;46.896;18.004;2023-07-13T04:16:16;28.00;;;4.20;;
63587;SDS011;49966;46.896;18.004;2023-07-13T04:18:46;15.05;;;3.78;;
63587;SDS011;49966;46.896;18.004;2023-07-13T04:21:16;19.02;;;3.10;;
63587;SDS011;49966;46.896;18.004;2023-07-13T04:23:45;12.38;;;2.88;;
63587;SDS011;49966;46.896;18.004;2023-07-13T04:26:13;8.48;;;2.30;;
63587;SDS011;49966;46.896;18.004;2023-07-13T04:28:41;8.48;;;1.90;;
63587;SDS011;49966;46.896;18.004;2023-07-13T04:31:09;7.97;;;1.83;;
63587;SDS011;49966;46.896;18.004;2023-07-13T04:33:38;5.80;;;1.67;;
63587;SDS011;49966;46.896;18.004;2023-07-13T04:36:06;5.28;;;1.58;;
63587;SDS011;49966;46.896;18.004;2023-07-13T04:38:38;4.95;;;1.98;;
63587;SDS011;49966;46.896;18.004;2023-07-13T04:41:06;5.47;;;1.90;;
63587;SDS011;49966;46.896;18.004;2023-07-13T04:43:36;6.05;;;1.75;;
63587;SDS011;49966;46.896;18.004;2023-07-13T04:46:05;3.38;;;1.60;;
63587;SDS011;49966;46.896;18.004;2023-07-13T04:48:35;4.03;;;1.40;;
63587;SDS011;49966;46.896;18.004;2023-07-13T04:51:03;2.33;;;1.70;;
63587;SDS011;49966;46.896;18.004;2023-07-13T04:53:32;2.88;;;1.30;;
63587;SDS011;49966;46.896;18.004;2023-07-13T04:56:03;3.97;;;1.73;;
63587;SDS011;49966;46.896;18.004;2023-07-13T04:58:32;3.92;;;1.85;;
63587;SDS011;49966;46.896;18.004;2023-07-13T05:01:02;4.60;;;1.65;;
63587;SDS011;49966;46.896;18.004;2023-07-13T05:03:31;3.63;;;2.00;;
63587;SDS011;49966;46.896;18.004;2023-07-13T05:06:00;3.38;;;1.80;;
63587;SDS011;49966;46.896;18.004;2023-07-13T05:08:30;10.80;;;2.88;;
63587;SDS011;49966;46.896;18.004;2023-07-13T05:10:59;9.45;;;2.15;;
63587;SDS011;49966;46.896;18.004;2023-07-13T05:13:28;5.45;;;1.90;;
63587;SDS011;49966;46.896;18.004;2023-07-13T05:15:57;8.80;;;3.00;;
63587;SDS011;49966;46.896;18.004;2023-07-13T05:18:27;4.97;;;2.15;;
63587;SDS011;49966;46.896;18.004;2023-07-13T05:20:59;5.85;;;2.13;;
63587;SDS011;49966;46.896;18.004;2023-07-13T05:23:29;4.65;;;1.90;;
63587;SDS011;49966;46.896;18.004;2023-07-13T05:25:58;3.17;;;1.80;;
63587;SDS011;49966;46.896;18.004;2023-07-13T05:28:29;6.70;;;2.03;;
63587;SDS011;49966;46.896;18.004;2023-07-13T05:30:59;2.88;;;1.80;;
63587;SDS011;49966;46.896;18.004;2023-07-13T05:33:28;5.15;;;1.98;;
63587;SDS011;49966;46.896;18.004;2023-07-13T05:35:56;2.60;;;1.77;;
63587;SDS011;49966;46.896;18.004;2023-07-13T05:38:24;5.50;;;1.88;;
63587;SDS011;49966;46.896;18.004;2023-07-13T05:40:53;3.33;;;1.55;;
63587;SDS011;49966;46.896;18.004;2023-07-13T05:46:42;7.63;;;2.47;;
63587;SDS011;49966;46.896;18.004;2023-07-13T05:49:10;4.85;;;2.10;;
63587;SDS011;49966;46.896;18.004;2023-07-13T05:51:38;3.50;;;1.50;;
63587;SDS011;49966;46.896;18.004;2023-07-13T05:54:07;2.50;;;1.80;;
63587;SDS011;49966;46.896;18.004;2023-07-13T05:56:35;2.17;;;1.80;;
63587;SDS011;49966;46.896;18.004;2023-07-13T05:59:03;2.40;;;1.70;;
63587;SDS011;49966;46.896;18.004;2023-07-13T06:01:32;2.78;;;1.95;;
63587;SDS011;49966;46.896;18.004;2023-07-13T06:04:02;4.10;;;1.75;;
63587;SDS011;49966;46.896;18.004;2023-07-13T06:06:30;3.28;;;1.90;;
63587;SDS011;49966;46.896;18.004;2023-07-13T06:08:58;2.90;;;1.90;;
63587;SDS011;49966;46.896;18.004;2023-07-13T06:11:27;7.00;;;1.90;;
63587;SDS011;49966;46.896;18.004;2023-07-13T06:13:57;3.28;;;1.90;;
63587;SDS011;49966;46.896;18.004;2023-07-13T06:16:28;3.10;;;2.08;;
63587;SDS011;49966;46.896;18.004;2023-07-13T06:23:07;2.92;;;2.10;;
63587;SDS011;49966;46.896;18.004;2023-07-13T06:25:39;3.97;;;2.08;;
63587;SDS011;49966;46.896;18.004;2023-07-13T06:28:07;5.10;;;2.15;;
63587;SDS011;49966;46.896;18.004;2023-07-13T06:30:37;3.35;;;2.03;;
63587;SDS011;49966;46.896;18.004;2023-07-13T06:33:06;2.70;;;1.92;;
63587;SDS011;49966;46.896;18.004;2023-07-13T06:35:34;8.32;;;2.33;;
63587;SDS011;49966;46.896;18.004;2023-07-13T06:38:02;4.88;;;2.30;;
63587;SDS011;49966;46.896;18.004;2023-07-13T06:40:33;4.40;;;2.05;;
63587;SDS011;49966;46.896;18.004;2023-07-13T06:43:01;4.95;;;2.00;;
63587;SDS011;49966;46.896;18.004;2023-07-13T06:45:30;2.10;;;1.90;;
63587;SDS011;49966;46.896;18.004;2023-07-13T06:47:58;2.55;;;1.83;;
63587;SDS011;49966;46.896;18.004;2023-07-13T06:50:26;4.20;;;1.95;;
63587;SDS011;49966;46.896;18.004;2023-07-13T06:52:54;6.80;;;2.20;;
63587;SDS011;49966;46.896;18.004;2023-07-13T06:55:23;3.67;;;1.83;;
63587;SDS011;49966;46.896;18.004;2023-07-13T06:57:52;4.90;;;2.00;;
63587;SDS011;49966;46.896;18.004;2023-07-13T07:00:21;6.65;;;2.20;;
63587;SDS011;49966;46.896;18.004;2023-07-13T07:02:49;3.72;;;1.95;;
63587;SDS011;49966;46.896;18.004;2023-07-13T07:05:18;5.43;;;2.20;;
63587;SDS011;49966;46.896;18.004;2023-07-13T07:07:49;4.60;;;2.20;;
63587;SDS011;49966;46.896;18.004;2023-07-13T07:10:18;6.95;;;1.95;;
63587;SDS011;49966;46.896;18.004;2023-07-13T07:12:46;3.40;;;1.90;;
63587;SDS011;49966;46.896;18.004;2023-07-13T07:15:17;2.75;;;1.88;;
63587;SDS011;49966;46.896;18.004;2023-07-13T07:17:46;2.10;;;1.70;;
63587;SDS011;49966;46.896;18.004;2023-07-13T07:20:15;3.70;;;1.50;;
63587;SDS011;49966;46.896;18.004;2023-07-13T07:22:43;2.00;;;1.80;;
63587;SDS011;49966;46.896;18.004;2023-07-13T07:25:12;3.28;;;1.80;;
63587;SDS011;49966;46.896;18.004;2023-07-13T07:27:40;2.28;;;1.58;;
63587;SDS011;49966;46.896;18.004;2023-07-13T07:30:12;4.15;;;1.80;;
63587;SDS011;49966;46.896;18.004;2023-07-13T07:32:49;1.98;;;1.50;;
63587;SDS011;49966;46.896;18.004;2023-07-13T07:35:24;1.50;;;1.40;;
63587;SDS011;49966;46.896;18.004;2023-07-13T07:38:12;4.22;;;2.10;;
63587;SDS011;49966;46.896;18.004;2023-07-13T07:40:41;5.53;;;1.88;;
63587;SDS011;49966;46.896;18.004;2023-07-13T07:43:12;4.50;;;1.83;;
63587;SDS011;49966;46.896;18.004;2023-07-13T07:45:40;2.90;;;1.75;;
63587;SDS011;49966;46.896;18.004;2023-07-13T07:48:10;3.17;;;1.80;;
63587;SDS011;49966;46.896;18.004;2023-07-13T07:50:38;3.67;;;1.92;;
63587;SDS011;49966;46.896;18.004;2023-07-13T07:53:07;4.00;;;1.80;;
63587;SDS011;49966;46.896;18.004;2023-07-13T07:55:40;2.50;;;1.50;;
63587;SDS011;49966;46.896;18.004;2023-07-13T07:58:28;5.43;;;2.85;;
63587;SDS011;49966;46.896;18.004;2023-07-13T08:01:03;2.03;;;1.83;;
63587;SDS011;49966;46.896;18.004;2023-07-13T08:03:36;2.95;;;2.00;;
63587;SDS011;49966;46.896;18.004;2023-07-13T08:06:08;2.38;;;1.52;;
63587;SDS011;49966;46.896;18.004;2023-07-13T08:08:56;7.03;;;1.70;;
63587;SDS011;49966;46.896;18.004;2023-07-13T08:11:24;5.13;;;1.98;;
63587;SDS011;49966;46.896;18.004;2023-07-13T08:13:56;8.05;;;1.90;;
63587;SDS011;49966;46.896;18.004;2023-07-13T08:16:26;5.07;;;1.80;;
63587;SDS011;49966;46.896;18.004;2023-07-13T08:18:56;2.65;;;1.70;;
63587;SDS011;49966;46.896;18.004;2023-07-13T08:21:24;3.08;;;1.80;;
63587;SDS011;49966;46.896;18.004;2023-07-13T08:23:52;2.10;;;1.90;;
63587;SDS011;49966;46.896;18.004;2023-07-13T08:26:21;5.45;;;2.38;;
63587;SDS011;49966;46.896;18.004;2023-07-13T08:28:49;5.82;;;2.00;;
63587;SDS011;49966;46.896;18.004;2023-07-13T08:31:17;4.57;;;1.90;;
63587;SDS011;49966;46.896;18.004;2023-07-13T08:33:45;3.08;;;1.85;;
63587;SDS011;49966;46.896;18.004;2023-07-13T08:36:15;6.30;;;2.10;;
63587;SDS011;49966;46.896;18.004;2023-07-13T08:38:43;2.28;;;1.70;;
63587;SDS011;49966;46.896;18.004;2023-07-13T08:41:12;3.55;;;2.10;;
63587;SDS011;49966;46.896;18.004;2023-07-13T08:43:47;4.50;;;1.90;;
63587;SDS011;49966;46.896;18.004;2023-07-13T08:46:19;2.67;;;1.70;;
63587;SDS011;49966;46.896;18.004;2023-07-13T08:48:56;4.47;;;1.95;;
63587;SDS011;49966;46.896;18.004;2023-07-13T08:51:44;2.88;;;2.00;;
63587;SDS011;49966;46.896;18.004;2023-07-13T08:54:19;2.53;;;1.88;;
63587;SDS011;49966;46.896;18.004;2023-07-13T08:56:51;3.05;;;2.00;;
63587;SDS011;49966;46.896;18.004;2023-07-13T08:59:23;5.18;;;2.05;;
63587;SDS011;49966;46.896;18.004;2023-07-13T09:02:00;4.22;;;1.92;;
63587;SDS011;49966;46.896;18.004;2023-07-13T09:04:45;6.43;;;2.03;;
63587;SDS011;49966;46.896;18.004;2023-07-13T09:07:21;5.78;;;2.15;;
63587;SDS011;49966;46.896;18.004;2023-07-13T09:09:59;2.60;;;2.00;;
63587;SDS011;49966;46.896;18.004;2023-07-13T09:12:35;3.85;;;2.15;;
63587;SDS011;49966;46.896;18.004;2023-07-13T09:15:17;4.10;;;2.42;;
63587;SDS011;49966;46.896;18.004;2023-07-13T09:17:53;2.38;;;2.08;;
63587;SDS011;49966;46.896;18.004;2023-07-13T09:20:26;2.58;;;2.25;;
63587;SDS011;49966;46.896;18.004;2023-07-13T09:23:01;5.65;;;1.98;;
63587;SDS011;49966;46.896;18.004;2023-07-13T09:25:36;3.63;;;2.17;;
63587;SDS011;49966;46.896;18.004;2023-07-13T09:28:10;3.70;;;2.13;;
63587;SDS011;49966;46.896;18.004;2023-07-13T09:30:46;2.65;;;2.20;;
63587;SDS011;49966;46.896;18.004;2023-07-13T09:33:20;5.80;;;2.30;;
63587;SDS011;49966;46.896;18.004;2023-07-13T09:35:49;3.60;;;2.05;;
63587;SDS011;49966;46.896;18.004;2023-07-13T09:38:19;6.72;;;2.20;;
63587;SDS011;49966;46.896;18.004;2023-07-13T09:41:04;2.85;;;2.00;;
63587;SDS011;49966;46.896;18.004;2023-07-13T09:44:01;3.92;;;2.33;;
63587;SDS011;49966;46.896;18.004;2023-07-13T09:46:30;3.80;;;1.90;;
63587;SDS011;49966;46.896;18.004;2023-07-13T09:48:58;3.38;;;2.00;;
63587;SDS011;49966;46.896;18.004;2023-07-13T09:51:26;2.67;;;2.10;;
63587;SDS011;49966;46.896;18.004;2023-07-13T09:53:56;1.77;;;1.67;;
63587;SDS011;49966;46.896;18.004;2023-07-13T09:56:27;3.38;;;2.25;;
63587;SDS011;49966;46.896;18.004;2023-07-13T09:58:57;2.78;;;2.08;;
63587;SDS011;49966;46.896;18.004;2023-07-13T10:01:31;2.10;;;1.90;;
63587;SDS011;49966;46.896;18.004;2023-07-13T10:04:02;2.05;;;1.80;;
63587;SDS011;49966;46.896;18.004;2023-07-13T10:06:38;3.45;;;2.00;;
63587;SDS011;49966;46.896;18.004;2023-07-13T10:09:09;3.97;;;2.00;;
63587;SDS011;49966;46.896;18.004;2023-07-13T10:11:39;6.50;;;2.00;;
63587;SDS011;49966;46.896;18.004;2023-07-13T10:14:12;3.35;;;2.15;;
63587;SDS011;49966;46.896;18.004;2023-07-13T10:16:42;5.65;;;1.92;;
63587;SDS011;49966;46.896;18.004;2023-07-13T10:19:12;4.25;;;1.98;;
63587;SDS011;49966;46.896;18.004;2023-07-13T10:21:50;2.70;;;1.85;;
63587;SDS011;49966;46.896;18.004;2023-07-13T10:24:23;2.70;;;2.00;;
63587;SDS011;49966;46.896;18.004;2023-07-13T10:26:54;5.30;;;2.00;;
63587;SDS011;49966;46.896;18.004;2023-07-13T10:29:26;2.33;;;1.65;;
63587;SDS011;49966;46.896;18.004;2023-07-13T10:31:57;2.78;;;1.90;;
63587;SDS011;49966;46.896;18.004;2023-07-13T10:34:34;2.92;;;2.03;;
63587;SDS011;49966;46.896;18.004;2023-07-13T10:37:03;4.95;;;2.00;;
63587;SDS011;49966;46.896;18.004;2023-07-13T10:39:36;4.07;;;1.90;;
63587;SDS011;49966;46.896;18.004;2023-07-13T10:42:06;10.98;;;7.22;;
63587;SDS011;49966;46.896;18.004;2023-07-13T10:44:41;4.63;;;2.47;;
63587;SDS011;49966;46.896;18.004;2023-07-13T10:47:11;4.32;;;2.13;;
63587;SDS011;49966;46.896;18.004;2023-07-13T10:49:43;2.00;;;1.80;;
63587;SDS011;49966;46.896;18.004;2023-07-13T10:55:33;1.83;;;1.67;;
63587;SDS011;49966;46.896;18.004;2023-07-13T10:58:14;3.97;;;1.90;;
63587;SDS011;49966;46.896;18.004;2023-07-13T11:00:47;4.57;;;2.00;;
63587;SDS011;49966;46.896;18.004;2023-07-13T11:03:19;4.28;;;1.95;;
63587;SDS011;49966;46.896;18.004;2023-07-13T11:05:50;2.55;;;2.00;;
63587;SDS011;49966;46.896;18.004;2023-07-13T11:08:33;2.85;;;1.90;;
63587;SDS011;49966;46.896;18.004;2023-07-13T11:11:31;3.28;;;2.00;;
63587;SDS011;49966;46.896;18.004;2023-07-13T11:14:03;1.98;;;1.80;;
63587;SDS011;49966;46.896;18.004;2023-07-13T11:16:35;2.35;;;2.10;;
63587;SDS011;49966;46.896;18.004;2023-07-13T11:19:37;2.00;;;1.85;;
63587;SDS011;49966;46.896;18.004;2023-07-13T11:22:11;3.65;;;1.98;;
63587;SDS011;49966;46.896;18.004;2023-07-13T11:24:52;4.88;;;1.70;;
63587;SDS011;49966;46.896;18.004;2023-07-13T11:27:33;4.57;;;1.50;;
63587;SDS011;49966;46.896;18.004;2023-07-13T11:30:08;3.30;;;1.88;;
63587;SDS011;49966;46.896;18.004;2023-07-13T11:32:44;4.30;;;1.63;;
63587;SDS011;49966;46.896;18.004;2023-07-13T11:35:22;3.13;;;1.85;;
63587;SDS011;49966;46.896;18.004;2023-07-13T11:37:54;2.50;;;1.75;;
63587;SDS011;49966;46.896;18.004;2023-07-13T11:40:22;4.65;;;2.05;;
63587;SDS011;49966;46.896;18.004;2023-07-13T11:42:59;2.45;;;1.52;;
63587;SDS011;49966;46.896;18.004;2023-07-13T11:45:28;2.65;;;2.03;;
63587;SDS011;49966;46.896;18.004;2023-07-13T11:48:20;1.98;;;1.50;;
63587;SDS011;49966;46.896;18.004;2023-07-13T11:50:51;2.65;;;1.90;;
63587;SDS011;49966;46.896;18.004;2023-07-13T11:53:22;4.05;;;1.70;;
63587;SDS011;49966;46.896;18.004;2023-07-13T11:55:53;1.85;;;1.75;;
63587;SDS011;49966;46.896;18.004;2023-07-13T11:58:24;2.10;;;1.90;;
63587;SDS011;49966;46.896;18.004;2023-07-13T12:00:55;2.00;;;1.70;;
63587;SDS011;49966;46.896;18.004;2023-07-13T12:03:27;4.38;;;1.95;;
63587;SDS011;49966;46.896;18.004;2023-07-13T12:06:01;5.93;;;2.00;;
63587;SDS011;49966;46.896;18.004;2023-07-13T12:08:37;3.15;;;2.00;;
63587;SDS011;49966;46.896;18.004;2023-07-13T12:11:11;3.00;;;1.70;;
63587;SDS011;49966;46.896;18.004;2023-07-13T12:13:46;1.80;;;1.70;;
63587;SDS011;49966;46.896;18.004;2023-07-13T12:16:16;2.42;;;1.80;;
63587;SDS011;49966;46.896;18.004;2023-07-13T12:18:50;2.43;;;1.90;;
63587;SDS011;49966;46.896;18.004;2023-07-13T12:21:22;1.80;;;1.70;;
63587;SDS011;49966;46.896;18.004;2023-07-13T12:23:55;3.40;;;1.80;;
63587;SDS011;49966;46.896;18.004;2023-07-13T12:26:23;3.47;;;1.98;;
63587;SDS011;49966;46.896;18.004;2023-07-13T12:28:54;3.38;;;2.00;;
63587;SDS011;49966;46.896;18.004;2023-07-13T12:31:24;1.92;;;1.80;;
63587;SDS011;49966;46.896;18.004;2023-07-13T12:34:00;3.00;;;1.50;;
63587;SDS011;49966;46.896;18.004;2023-07-13T12:36:32;2.05;;;1.77;;
63587;SDS011;49966;46.896;18.004;2023-07-13T12:39:04;5.65;;;1.80;;
63587;SDS011;49966;46.896;18.004;2023-07-13T12:41:41;3.47;;;1.83;;
63587;SDS011;49966;46.896;18.004;2023-07-13T12:44:14;3.83;;;1.75;;
63587;SDS011;49966;46.896;18.004;2023-07-13T12:46:55;2.45;;;2.03;;
63587;SDS011;49966;46.896;18.004;2023-07-13T12:49:29;2.17;;;1.65;;
63587;SDS011;49966;46.896;18.004;2023-07-13T12:52:03;3.75;;;1.80;;
63587;SDS011;49966;46.896;18.004;2023-07-13T12:54:39;2.25;;;1.70;;
63587;SDS011;49966;46.896;18.004;2023-07-13T12:57:21;3.30;;;2.00;;
63587;SDS011;49966;46.896;18.004;2023-07-13T12:59:52;1.88;;;1.75;;
63587;SDS011;49966;46.896;18.004;2023-07-13T13:02:26;4.32;;;1.80;;
63587;SDS011;49966;46.896;18.004;2023-07-13T13:04:58;2.08;;;1.77;;
63587;SDS011;49966;46.896;18.004;2023-07-13T13:07:26;2.95;;;1.67;;
63587;SDS011;49966;46.896;18.004;2023-07-13T13:09:56;12.25;;;2.50;;
63587;SDS011;49966;46.896;18.004;2023-07-13T13:12:24;2.78;;;1.92;;
63587;SDS011;49966;46.896;18.004;2023-07-13T13:14:54;17.85;;;2.25;;
63587;SDS011;49966;46.896;18.004;2023-07-13T13:17:24;9.85;;;1.88;;
63587;SDS011;49966;46.896;18.004;2023-07-13T13:19:56;3.55;;;1.70;;
63587;SDS011;49966;46.896;18.004;2023-07-13T13:22:24;2.35;;;1.55;;
63587;SDS011;49966;46.896;18.004;2023-07-13T13:24:53;8.80;;;1.95;;
63587;SDS011;49966;46.896;18.004;2023-07-13T13:27:21;3.90;;;1.85;;
63587;SDS011;49966;46.896;18.004;2023-07-13T13:29:51;9.73;;;2.30;;
63587;SDS011;49966;46.896;18.004;2023-07-13T13:32:21;3.22;;;1.80;;
63587;SDS011;49966;46.896;18.004;2023-07-13T13:34:49;3.80;;;1.98;;
63587;SDS011;49966;46.896;18.004;2023-07-13T13:37:18;2.00;;;1.70;;
63587;SDS011;49966;46.896;18.004;2023-07-13T13:39:49;1.55;;;1.40;;
63587;SDS011;49966;46.896;18.004;2023-07-13T13:42:38;3.60;;;1.80;;
63587;SDS011;49966;46.896;18.004;2023-07-13T13:45:07;6.25;;;2.00;;
63587;SDS011;49966;46.896;18.004;2023-07-13T13:47:38;4.05;;;1.92;;
63587;SDS011;49966;46.896;18.004;2023-07-13T13:50:11;3.42;;;1.45;;
63587;SDS011;49966;46.896;18.004;2023-07-13T13:52:42;1.65;;;1.55;;
63587;SDS011;49966;46.896;18.004;2023-07-13T13:55:14;1.70;;;1.55;;
63587;SDS011;49966;46.896;18.004;2023-07-13T13:57:42;5.55;;;1.70;;
63587;SDS011;49966;46.896;18.004;2023-07-13T14:00:11;2.05;;;1.75;;
63587;SDS011;49966;46.896;18.004;2023-07-13T14:02:44;6.55;;;2.08;;
63587;SDS011;49966;46.896;18.004;2023-07-13T14:05:15;1.75;;;1.65;;
63587;SDS011;49966;46.896;18.004;2023-07-13T14:07:47;6.75;;;2.10;;
63587;SDS011;49966;46.896;18.004;2023-07-13T14:10:16;3.67;;;1.95;;
63587;SDS011;49966;46.896;18.004;2023-07-13T14:12:47;7.13;;;2.10;;
63587;SDS011;49966;46.896;18.004;2023-07-13T14:15:20;6.75;;;2.42;;
63587;SDS011;49966;46.896;18.004;2023-07-13T14:17:51;6.88;;;3.33;;
63587;SDS011;49966;46.896;18.004;2023-07-13T14:20:21;6.93;;;3.70;;
63587;SDS011;49966;46.896;18.004;2023-07-13T14:22:51;7.55;;;2.92;;
63587;SDS011;49966;46.896;18.004;2023-07-13T14:25:21;7.22;;;2.90;;
63587;SDS011;49966;46.896;18.004;2023-07-13T14:27:51;7.35;;;3.10;;
63587;SDS011;49966;46.896;18.004;2023-07-13T14:30:26;5.20;;;2.60;;
63587;SDS011;49966;46.896;18.004;2023-07-13T14:33:01;7.07;;;2.90;;
63587;SDS011;49966;46.896;18.004;2023-07-13T14:35:29;5.10;;;2.50;;
63587;SDS011;49966;46.896;18.004;2023-07-13T14:38:00;6.35;;;2.22;;
63587;SDS011;49966;46.896;18.004;2023-07-13T14:40:28;8.98;;;2.38;;
63587;SDS011;49966;46.896;18.004;2023-07-13T14:42:57;8.98;;;3.00;;
63587;SDS011;49966;46.896;18.004;2023-07-13T14:45:26;6.93;;;2.63;;
63587;SDS011;49966;46.896;18.004;2023-07-13T14:47:54;4.88;;;2.25;;
63587;SDS011;49966;46.896;18.004;2023-07-13T14:50:26;4.47;;;2.45;;
63587;SDS011;49966;46.896;18.004;2023-07-13T14:52:58;3.90;;;2.25;;
63587;SDS011;49966;46.896;18.004;2023-07-13T14:55:27;7.25;;;2.35;;
63587;SDS011;49966;46.896;18.004;2023-07-13T14:57:56;5.05;;;2.33;;
63587;SDS011;49966;46.896;18.004;2023-07-13T15:00:28;5.53;;;2.10;;
63587;SDS011;49966;46.896;18.004;2023-07-13T15:02:59;3.03;;;1.75;;
63587;SDS011;49966;46.896;18.004;2023-07-13T15:05:30;3.13;;;2.38;;
63587;SDS011;49966;46.896;18.004;2023-07-13T15:08:01;4.25;;;2.03;;
63587;SDS011;49966;46.896;18.004;2023-07-13T15:10:31;4.25;;;1.90;;